Time;durP1;ratioP1;P1;durP2;ratioP2;P2;SDS_P1;SDS_P2;PMS_P1;PMS_P2;Temp;Humidity;BMP_temperature;BMP_pressure;BME280_temperature;BME280_humidity;BME280_pressure;Samples;Min_cycle;Max_cycle;Signal;HPM_P1;HPM_P2
2023/02/02 00:00:05;;;;;;;2.87;1.60;;;1.60;99.90;;;;;;4136927;28;20526;-66
2023/02/02 00:02:06;;;;;;;5.03;1.83;;;1.60;99.90;;;;;;4144495;28;20196;-66
2023/02/02 00:04:15;;;;;;;4.97;1.50;;;1.70;99.90;;;;;;4144106;28;20989;-67
2023/02/02 00:06:21;;;;;;;11.27;3.90;;;1.70;99.90;;;;;;4136067;28;20218;-65
2023/02/02 00:08:22;;;;;;;4.60;1.90;;;1.80;99.90;;;;;;4138086;28;21236;-65
2023/02/02 00:10:22;;;;;;;7.17;1.80;;;1.80;99.90;;;;;;4133405;28;20432;-67
2023/02/02 00:12:23;;;;;;;5.70;1.57;;;1.80;99.90;;;;;;4140113;28;20283;-66
2023/02/02 00:14:24;;;;;;;5.30;1.83;;;1.70;99.90;;;;;;4135016;28;20229;-66
2023/02/02 00:16:27;;;;;;;5.90;1.87;;;1.70;99.90;;;;;;4140326;28;20240;-66
2023/02/02 00:18:28;;;;;;;8.90;2.03;;;1.70;99.90;;;;;;4133481;28;20205;-69
2023/02/02 00:20:29;;;;;;;7.17;2.10;;;1.70;99.90;;;;;;4140975;28;21009;-67
2023/02/02 00:22:29;;;;;;;5.00;2.30;;;1.80;99.90;;;;;;4134055;28;20628;-65
2023/02/02 00:24:30;;;;;;;15.00;2.93;;;1.80;99.90;;;;;;4140601;28;20288;-67
2023/02/02 00:26:31;;;;;;;5.63;2.30;;;1.70;99.90;;;;;;4145286;28;20222;-65
2023/02/02 00:28:31;;;;;;;6.40;2.60;;;1.60;99.90;;;;;;4148017;28;20192;-66
2023/02/02 00:30:32;;;;;;;7.13;3.43;;;1.60;99.90;;;;;;4162088;28;20207;-66
2023/02/02 00:32:33;;;;;;;10.03;2.10;;;1.60;99.90;;;;;;4162288;28;20196;-66
2023/02/02 00:34:33;;;;;;;6.53;2.90;;;1.60;99.90;;;;;;4161297;28;20191;-66
2023/02/02 00:36:34;;;;;;;10.63;3.07;;;1.50;99.90;;;;;;4163545;28;20281;-66
2023/02/02 00:38:36;;;;;;;11.30;2.80;;;1.50;99.90;;;;;;4151118;28;20277;-66
2023/02/02 00:40:37;;;;;;;6.93;2.40;;;1.50;99.90;;;;;;4133364;28;20200;-66
2023/02/02 00:42:38;;;;;;;5.53;2.37;;;1.60;99.90;;;;;;4133028;28;20427;-66
2023/02/02 00:46:57;;;;;;;7.93;2.83;;;1.50;99.90;;;;;;4132198;28;20308;-65
2023/02/02 00:48:58;;;;;;;7.77;2.50;;;1.50;99.90;;;;;;4131466;28;20447;-65
2023/02/02 00:51:01;;;;;;;5.77;2.30;;;1.50;99.90;;;;;;4130664;28;20193;-67
2023/02/02 00:53:02;;;;;;;8.40;2.80;;;1.60;99.90;;;;;;4132095;28;20193;-66
2023/02/02 00:55:03;;;;;;;6.70;2.67;;;1.60;99.90;;;;;;4131928;28;20467;-66
2023/02/02 00:57:03;;;;;;;6.93;2.30;;;1.70;99.90;;;;;;4131991;28;20483;-65
2023/02/02 00:59:04;;;;;;;5.60;1.90;;;1.60;99.90;;;;;;4132117;28;20436;-68
2023/02/02 01:01:05;;;;;;;6.43;2.20;;;1.60;99.90;;;;;;4131230;28;20190;-65
2023/02/02 01:03:05;;;;;;;2.60;1.70;;;1.50;99.90;;;;;;4131019;28;20676;-65
2023/02/02 01:05:07;;;;;;;7.70;2.40;;;1.50;99.90;;;;;;4130845;28;20191;-66
2023/02/02 01:07:07;;;;;;;7.90;2.20;;;1.50;99.90;;;;;;4130830;28;20307;-66
2023/02/02 01:09:08;;;;;;;3.63;1.80;;;1.50;99.90;;;;;;4131412;28;20437;-66
2023/02/02 01:11:09;;;;;;;5.80;2.17;;;1.50;99.90;;;;;;4131940;28;20384;-66
2023/02/02 01:13:10;;;;;;;7.17;2.03;;;1.50;99.90;;;;;;4130705;28;20238;-65
2023/02/02 01:15:12;;;;;;;6.23;2.60;;;1.40;99.90;;;;;;4130599;28;20192;-66
2023/02/02 01:17:13;;;;;;;5.70;2.80;;;1.50;99.90;;;;;;4132953;28;20237;-66
2023/02/02 01:19:15;;;;;;;6.77;2.10;;;1.50;99.90;;;;;;4147410;28;20953;-65
2023/02/02 01:21:16;;;;;;;3.40;1.90;;;1.50;99.90;;;;;;4147969;28;20424;-69
2023/02/02 01:23:16;;;;;;;4.30;2.70;;;1.60;99.90;;;;;;4148467;28;20427;-67
2023/02/02 01:25:17;;;;;;;5.23;2.03;;;1.60;99.90;;;;;;4148249;28;20432;-66
2023/02/02 01:27:18;;;;;;;3.53;1.77;;;1.50;99.90;;;;;;4147898;28;20204;-66
2023/02/02 01:29:19;;;;;;;3.40;2.20;;;1.50;99.90;;;;;;4147548;28;20183;-66
2023/02/02 01:31:20;;;;;;;4.70;2.03;;;1.60;99.90;;;;;;4147923;28;20193;-66
2023/02/02 01:33:21;;;;;;;3.50;1.80;;;1.50;99.90;;;;;;4148087;28;20180;-66
2023/02/02 01:35:22;;;;;;;9.60;2.37;;;1.50;99.90;;;;;;4147719;28;20263;-66
2023/02/02 01:37:22;;;;;;;10.77;2.27;;;1.40;99.90;;;;;;4147840;28;20523;-66
2023/02/02 01:39:23;;;;;;;5.90;2.50;;;1.40;99.90;;;;;;4147322;28;20211;-65
2023/02/02 01:41:25;;;;;;;9.43;2.10;;;1.50;99.90;;;;;;4147779;28;20182;-66
2023/02/02 01:43:51;;;;;;;6.23;2.17;;;1.50;99.90;;;;;;4146650;28;20182;-66
2023/02/02 01:45:54;;;;;;;3.37;1.90;;;1.60;99.90;;;;;;4147969;28;20479;-66
2023/02/02 01:47:59;;;;;;;6.13;2.50;;;1.60;99.90;;;;;;4147280;28;20541;-67
2023/02/02 01:50:00;;;;;;;7.07;2.10;;;1.50;99.90;;;;;;4145749;28;20467;-66
2023/02/02 01:52:00;;;;;;;5.77;1.67;;;1.60;99.90;;;;;;4147561;28;20428;-66
2023/02/02 01:54:05;;;;;;;5.30;3.10;;;1.60;99.90;;;;;;4130058;28;20265;-66
2023/02/02 01:56:09;;;;;;;5.20;2.10;;;1.60;99.90;;;;;;4146093;28;20297;-66
2023/02/02 01:58:20;;;;;;;2.80;1.67;;;1.60;99.90;;;;;;4146021;28;20496;-66
2023/02/02 02:00:24;;;;;;;4.00;2.37;;;1.70;99.90;;;;;;4146146;28;20412;-67
2023/02/02 02:02:26;;;;;;;3.53;2.00;;;1.60;99.90;;;;;;4147312;28;20521;-66
2023/02/02 02:04:29;;;;;;;6.80;2.03;;;1.70;99.90;;;;;;4145986;28;20479;-66
2023/02/02 02:06:30;;;;;;;6.03;1.90;;;1.60;99.90;;;;;;4145966;28;20477;-66
2023/02/02 02:09:02;;;;;;;2.07;1.60;;;1.70;99.90;;;;;;4145402;28;20431;-66
2023/02/02 02:11:03;;;;;;;5.43;2.50;;;1.70;99.90;;;;;;4146867;28;20633;-66
2023/02/02 02:13:05;;;;;;;12.20;2.30;;;1.70;99.90;;;;;;4147278;28;20441;-66
2023/02/02 02:17:58;;;;;;;7.47;3.33;;;1.80;99.90;;;;;;4146974;28;20451;-66
2023/02/02 02:26:33;;;;;;;8.77;1.80;;;1.90;99.90;;;;;;4136493;28;20491;-65
2023/02/02 02:29:10;;;;;;;5.70;2.27;;;1.80;99.90;;;;;;4112204;28;20998;-65
2023/02/02 02:31:17;;;;;;;6.47;1.93;;;1.80;99.90;;;;;;4156432;28;20882;-66
2023/02/02 02:33:45;;;;;;;10.07;2.20;;;1.80;99.90;;;;;;4147071;28;21018;-66
2023/02/02 02:36:08;;;;;;;4.47;1.97;;;1.80;99.90;;;;;;4161765;28;20466;-68
2023/02/02 02:38:34;;;;;;;4.80;1.90;;;1.80;99.90;;;;;;4145444;28;20420;-66
2023/02/02 02:40:49;;;;;;;5.53;1.83;;;1.80;99.90;;;;;;4146291;28;20911;-66
2023/02/02 02:43:01;;;;;;;3.43;1.70;;;1.80;99.90;;;;;;4146119;28;20428;-65
2023/02/02 02:45:05;;;;;;;8.67;2.20;;;1.80;99.90;;;;;;4145851;28;20876;-67
2023/02/02 02:47:07;;;;;;;5.53;2.20;;;1.80;99.90;;;;;;4145526;28;20460;-67
2023/02/02 02:49:10;;;;;;;7.67;1.80;;;1.90;99.90;;;;;;4146012;28;20444;-67
2023/02/02 02:51:52;;;;;;;7.90;2.10;;;1.90;99.90;;;;;;4146281;28;20431;-67
2023/02/02 02:53:52;;;;;;;5.27;1.80;;;1.80;99.90;;;;;;4145540;28;20523;-66
2023/02/02 02:56:00;;;;;;;5.63;1.80;;;1.80;99.90;;;;;;4146502;28;20506;-66
2023/02/02 02:58:16;;;;;;;5.83;1.70;;;1.80;99.90;;;;;;4145274;28;20169;-67
2023/02/02 03:00:39;;;;;;;2.93;1.60;;;1.80;99.90;;;;;;4143865;28;20411;-67
2023/02/02 03:02:59;;;;;;;4.03;1.70;;;1.80;99.90;;;;;;4146563;28;20424;-66
2023/02/02 03:05:23;;;;;;;9.87;9.13;;;1.80;99.90;;;;;;4145019;28;20521;-67
2023/02/02 03:07:51;;;;;;;5.77;2.87;;;1.80;99.90;;;;;;4146267;28;20443;-67
2023/02/02 03:09:53;;;;;;;2.53;1.80;;;1.70;99.90;;;;;;4139995;28;20454;-67
2023/02/02 03:11:55;;;;;;;2.67;1.63;;;1.80;99.90;;;;;;4145070;28;20432;-67
2023/02/02 03:13:56;;;;;;;4.73;1.83;;;1.80;99.90;;;;;;4145096;28;20967;-66
2023/02/02 03:15:57;;;;;;;6.47;1.87;;;1.80;99.90;;;;;;4146199;28;20497;-67
2023/02/02 03:17:58;;;;;;;9.53;2.23;;;1.80;99.90;;;;;;4144949;28;20989;-67
2023/02/02 03:19:58;;;;;;;5.53;2.13;;;1.80;99.90;;;;;;4145629;28;20435;-67
2023/02/02 03:21:59;;;;;;;5.10;2.33;;;1.80;99.90;;;;;;4146527;28;20223;-67
2023/02/02 03:24:00;;;;;;;4.90;1.67;;;1.80;99.90;;;;;;4144956;28;20243;-66
2023/02/02 03:26:01;;;;;;;7.40;3.20;;;1.70;99.90;;;;;;4146360;28;20283;-67
2023/02/02 03:28:03;;;;;;;6.03;1.87;;;1.60;99.90;;;;;;4145146;28;20434;-67
2023/02/02 03:30:07;;;;;;;7.67;2.87;;;1.60;99.90;;;;;;4145664;28;20190;-67
2023/02/02 03:32:08;;;;;;;7.23;2.03;;;1.60;99.90;;;;;;4144899;28;20470;-67
2023/02/02 03:34:09;;;;;;;3.80;1.83;;;1.50;99.90;;;;;;4144792;28;20471;-67
2023/02/02 03:36:10;;;;;;;6.13;2.03;;;1.60;99.90;;;;;;4146147;28;20228;-66
2023/02/02 03:38:11;;;;;;;3.40;1.37;;;1.50;99.90;;;;;;4146109;28;20569;-70
2023/02/02 03:40:12;;;;;;;2.33;1.67;;;1.50;99.90;;;;;;4145386;28;20252;-67
2023/02/02 03:42:13;;;;;;;3.03;1.60;;;1.50;99.90;;;;;;4146135;28;20486;-66
2023/02/02 03:44:14;;;;;;;7.60;2.50;;;1.50;99.90;;;;;;4128740;28;20464;-66
2023/02/02 03:46:14;;;;;;;2.30;1.77;;;1.50;99.90;;;;;;4146000;28;20204;-66
2023/02/02 03:48:15;;;;;;;4.80;1.70;;;1.50;99.90;;;;;;4145899;28;20211;-66
2023/02/02 03:50:16;;;;;;;3.80;1.60;;;1.50;99.90;;;;;;4145377;28;20189;-66
2023/02/02 03:52:17;;;;;;;2.60;1.80;;;1.50;99.90;;;;;;4146063;28;20687;-66
2023/02/02 03:54:17;;;;;;;4.60;2.27;;;1.50;99.90;;;;;;4139460;28;20490;-65
2023/02/02 03:56:18;;;;;;;2.53;1.50;;;1.50;99.90;;;;;;4145647;28;20244;-65
2023/02/02 03:58:21;;;;;;;2.10;1.40;;;1.50;99.90;;;;;;4145924;28;20192;-65
2023/02/02 04:00:22;;;;;;;7.50;1.87;;;1.50;99.90;;;;;;4145780;28;20185;-65
2023/02/02 04:02:22;;;;;;;2.33;1.47;;;1.60;99.90;;;;;;4146051;28;20455;-66
2023/02/02 04:04:23;;;;;;;6.73;4.47;;;1.50;99.90;;;;;;4146114;28;20213;-65
2023/02/02 04:06:24;;;;;;;8.23;1.93;;;1.60;99.90;;;;;;4145846;28;20251;-65
2023/02/02 04:08:25;;;;;;;4.57;1.47;;;1.50;99.90;;;;;;4145278;28;20182;-65
2023/02/02 04:10:26;;;;;;;4.90;1.87;;;1.50;99.90;;;;;;4145425;28;20460;-65
2023/02/02 04:12:27;;;;;;;6.03;1.70;;;1.60;99.90;;;;;;4148833;28;20302;-65
2023/02/02 04:14:27;;;;;;;3.57;1.67;;;1.60;99.90;;;;;;4148932;28;20651;-65
2023/02/02 04:16:33;;;;;;;8.30;1.97;;;1.60;99.90;;;;;;4148831;28;20947;-65
2023/02/02 04:18:36;;;;;;;4.97;1.97;;;1.60;99.90;;;;;;4136104;28;20364;-65
2023/02/02 04:20:37;;;;;;;2.87;2.10;;;1.60;99.90;;;;;;4132651;28;20478;-67
2023/02/02 04:22:38;;;;;;;5.67;2.20;;;1.60;99.90;;;;;;4144595;28;20431;-66
2023/02/02 04:24:38;;;;;;;7.57;2.50;;;1.60;99.90;;;;;;4148886;28;20219;-66
2023/02/02 04:26:40;;;;;;;7.67;2.87;;;1.50;99.90;;;;;;4148797;28;20209;-66
2023/02/02 04:28:40;;;;;;;8.07;3.37;;;1.50;99.90;;;;;;4148084;28;20193;-65
2023/02/02 04:30:41;;;;;;;7.67;2.10;;;1.50;99.90;;;;;;4148827;28;20867;-65
2023/02/02 04:32:42;;;;;;;8.33;2.40;;;1.50;99.90;;;;;;4148842;28;20338;-66
2023/02/02 04:34:43;;;;;;;10.03;2.90;;;1.50;99.90;;;;;;4149342;28;20279;-66
2023/02/02 04:36:44;;;;;;;4.63;2.47;;;1.50;99.90;;;;;;4148612;28;20236;-66
2023/02/02 04:38:52;;;;;;;6.47;2.40;;;1.60;99.90;;;;;;4148069;28;20801;-66
2023/02/02 04:40:52;;;;;;;7.63;3.07;;;1.60;99.90;;;;;;4148168;28;20189;-66
2023/02/02 04:42:53;;;;;;;8.63;2.70;;;1.50;99.90;;;;;;4148513;28;20473;-66
2023/02/02 04:44:54;;;;;;;4.47;2.43;;;1.50;99.90;;;;;;4148917;28;20197;-66
2023/02/02 04:46:54;;;;;;;7.73;2.00;;;1.50;99.90;;;;;;4148504;28;20303;-66
2023/02/02 04:48:55;;;;;;;3.73;2.17;;;1.60;99.90;;;;;;4146487;28;20204;-66
2023/02/02 04:51:05;;;;;;;10.10;2.77;;;1.60;99.90;;;;;;4148453;28;20589;-66
2023/02/02 04:53:05;;;;;;;4.63;2.10;;;1.50;99.90;;;;;;4148439;28;20184;-65
2023/02/02 04:55:07;;;;;;;4.20;1.87;;;1.60;99.90;;;;;;4148506;28;20446;-66
2023/02/02 04:57:07;;;;;;;3.67;2.30;;;1.60;99.90;;;;;;4148599;28;20236;-66
2023/02/02 04:59:08;;;;;;;5.73;2.97;;;1.80;99.90;;;;;;4148257;28;20423;-66
2023/02/02 05:01:17;;;;;;;5.40;1.80;;;1.90;99.90;;;;;;4154956;28;20185;-66
2023/02/02 05:03:18;;;;;;;5.87;2.30;;;1.80;99.90;;;;;;4164305;28;20937;-66
2023/02/02 05:05:19;;;;;;;11.03;2.30;;;1.70;99.90;;;;;;4163427;28;20426;-66
2023/02/02 05:07:20;;;;;;;3.47;2.00;;;1.80;99.90;;;;;;4164577;28;20322;-66
2023/02/02 05:09:20;;;;;;;4.13;2.23;;;1.80;99.90;;;;;;4164175;28;20880;-66
2023/02/02 05:11:22;;;;;;;4.70;1.80;;;1.80;99.90;;;;;;4163471;28;20196;-66
2023/02/02 05:13:23;;;;;;;5.80;3.23;;;1.80;99.90;;;;;;4163398;28;20196;-66
2023/02/02 05:15:24;;;;;;;3.50;1.67;;;1.70;99.90;;;;;;4164639;28;20436;-65
2023/02/02 05:17:25;;;;;;;4.27;1.70;;;1.70;99.90;;;;;;4162064;28;20243;-67
2023/02/02 05:19:26;;;;;;;2.80;1.50;;;1.80;99.90;;;;;;4147607;28;20962;-67
2023/02/02 05:21:27;;;;;;;3.17;2.13;;;1.80;99.90;;;;;;4148246;28;20432;-66
2023/02/02 05:23:30;;;;;;;3.37;2.10;;;1.90;99.90;;;;;;4147642;28;20239;-66
2023/02/02 05:25:31;;;;;;;3.40;1.70;;;1.90;99.90;;;;;;4146959;28;20965;-66
2023/02/02 05:27:32;;;;;;;4.17;2.10;;;1.80;99.90;;;;;;4148176;28;20447;-66
2023/02/02 05:29:32;;;;;;;4.83;1.77;;;1.80;99.90;;;;;;4147423;28;20517;-66
2023/02/02 05:31:34;;;;;;;2.13;1.40;;;1.90;99.90;;;;;;4146726;28;20498;-66
2023/02/02 05:33:35;;;;;;;4.67;2.20;;;1.80;99.90;;;;;;4147798;28;20216;-66
2023/02/02 05:35:36;;;;;;;3.87;1.73;;;1.90;99.90;;;;;;4147654;28;20420;-67
2023/02/02 05:37:37;;;;;;;6.27;2.47;;;1.80;99.90;;;;;;4148001;28;20190;-66
2023/02/02 05:39:37;;;;;;;3.60;1.97;;;1.90;99.90;;;;;;4162279;28;20206;-66
2023/02/02 05:41:38;;;;;;;4.63;4.17;;;1.90;99.90;;;;;;4148243;28;20193;-66
2023/02/02 05:43:39;;;;;;;4.77;1.83;;;1.80;99.90;;;;;;4163146;28;20298;-66
2023/02/02 05:45:39;;;;;;;7.77;2.37;;;1.90;99.90;;;;;;4146553;28;20188;-66
2023/02/02 05:47:40;;;;;;;5.53;2.50;;;2.00;99.90;;;;;;4162614;28;20572;-66
2023/02/02 05:49:41;;;;;;;3.70;2.20;;;2.00;99.90;;;;;;4146991;28;20177;-66
2023/02/02 05:51:52;;;;;;;3.53;1.83;;;1.90;99.90;;;;;;4147577;28;20200;-66
2023/02/02 05:53:53;;;;;;;7.03;4.53;;;1.90;99.90;;;;;;4128705;28;20196;-66
2023/02/02 05:55:53;;;;;;;4.13;2.00;;;2.00;99.90;;;;;;4138221;28;20489;-66
2023/02/02 05:57:54;;;;;;;3.17;2.03;;;2.00;99.90;;;;;;4139287;28;20621;-67
2023/02/02 05:59:55;;;;;;;3.13;2.33;;;2.00;99.90;;;;;;4145357;28;20254;-66
2023/02/02 06:01:55;;;;;;;3.03;1.90;;;2.00;99.90;;;;;;4146124;28;20193;-66
2023/02/02 06:03:56;;;;;;;3.47;2.03;;;2.10;99.90;;;;;;4147538;28;20195;-66
2023/02/02 06:05:57;;;;;;;5.33;2.17;;;2.10;99.90;;;;;;4147231;28;20213;-66
2023/02/02 06:07:57;;;;;;;4.80;1.87;;;2.00;99.90;;;;;;4145947;28;20276;-66
2023/02/02 06:09:58;;;;;;;6.40;2.00;;;2.00;99.90;;;;;;4146439;28;20192;-66
2023/02/02 06:11:59;;;;;;;6.33;1.70;;;2.00;99.90;;;;;;4147243;28;20195;-66
2023/02/02 06:14:00;;;;;;;4.00;1.63;;;2.00;99.90;;;;;;4156088;28;20204;-66
2023/02/02 06:16:00;;;;;;;3.93;1.90;;;2.00;99.90;;;;;;4163334;28;20311;-66
2023/02/02 06:18:01;;;;;;;3.80;1.57;;;2.10;99.90;;;;;;4154753;28;20794;-66
2023/02/02 06:20:03;;;;;;;2.90;2.10;;;2.10;99.90;;;;;;4145071;28;20642;-66
2023/02/02 06:22:04;;;;;;;5.50;1.70;;;2.10;99.90;;;;;;4145833;28;20994;-66
2023/02/02 06:24:05;;;;;;;4.17;2.93;;;2.00;99.90;;;;;;4147077;28;20432;-67
2023/02/02 06:26:07;;;;;;;4.20;2.00;;;2.00;99.90;;;;;;4147001;28;20220;-67
2023/02/02 06:28:08;;;;;;;3.10;1.93;;;2.00;99.90;;;;;;4146962;28;20436;-67
2023/02/02 06:30:10;;;;;;;5.43;1.70;;;2.00;99.90;;;;;;4145263;28;20429;-66
2023/02/02 06:32:10;;;;;;;4.03;1.83;;;2.10;99.90;;;;;;4146896;28;20442;-67
2023/02/02 06:34:14;;;;;;;7.03;1.97;;;2.10;99.90;;;;;;4146899;28;20915;-67
2023/02/02 06:36:14;;;;;;;5.50;1.90;;;2.10;99.90;;;;;;4146922;28;20221;-67
2023/02/02 06:38:15;;;;;;;15.33;3.33;;;2.00;99.90;;;;;;4146750;28;20791;-67
2023/02/02 06:40:16;;;;;;;3.80;1.87;;;2.00;99.90;;;;;;4146221;28;20302;-67
2023/02/02 06:42:17;;;;;;;4.27;2.00;;;2.10;99.90;;;;;;4147870;28;20193;-65
2023/02/02 06:44:19;;;;;;;3.97;1.90;;;2.20;99.90;;;;;;4147646;28;20434;-64
2023/02/02 06:46:20;;;;;;;5.80;1.90;;;2.30;99.90;;;;;;4146911;28;20216;-67
2023/02/02 06:48:21;;;;;;;5.40;1.73;;;2.30;99.90;;;;;;4161035;28;20451;-67
2023/02/02 06:50:21;;;;;;;6.57;3.03;;;2.10;99.90;;;;;;4146634;28;20193;-67
2023/02/02 06:52:22;;;;;;;3.80;1.63;;;2.10;99.90;;;;;;4146838;28;20186;-66
2023/02/02 06:54:22;;;;;;;6.03;3.57;;;2.10;99.90;;;;;;4146706;28;20192;-67
2023/02/02 06:56:23;;;;;;;5.87;2.03;;;2.10;99.90;;;;;;4146665;28;20249;-66
2023/02/02 06:58:24;;;;;;;5.07;1.70;;;2.10;99.90;;;;;;4146000;28;20185;-66
2023/02/02 07:00:27;;;;;;;2.60;1.70;;;2.10;99.90;;;;;;4146524;28;20178;-67
2023/02/02 07:02:27;;;;;;;8.50;3.30;;;2.20;99.90;;;;;;4145630;28;20690;-66
2023/02/02 07:04:28;;;;;;;6.23;2.93;;;2.20;99.90;;;;;;4146450;28;20514;-66
2023/02/02 07:06:29;;;;;;;7.53;2.43;;;2.20;99.90;;;;;;4146374;28;20209;-66
2023/02/02 07:08:29;;;;;;;13.30;5.13;;;2.20;99.90;;;;;;4146351;28;20666;-66
2023/02/02 07:10:30;;;;;;;5.97;2.13;;;2.20;99.90;;;;;;4144973;28;20173;-66
2023/02/02 07:12:31;;;;;;;4.40;1.80;;;2.20;99.90;;;;;;4146518;28;20671;-66
2023/02/02 07:14:31;;;;;;;5.63;2.27;;;2.10;99.90;;;;;;4146300;28;20189;-66
2023/02/02 07:16:32;;;;;;;2.73;1.57;;;2.10;99.90;;;;;;4144959;28;20217;-67
2023/02/02 07:18:33;;;;;;;7.47;2.53;;;2.00;99.90;;;;;;4160460;28;20207;-66
2023/02/02 07:20:33;;;;;;;2.63;1.80;;;2.00;99.90;;;;;;4146165;28;20276;-66
2023/02/02 07:22:37;;;;;;;6.73;2.30;;;1.90;99.90;;;;;;4144934;28;20200;-66
2023/02/02 07:24:38;;;;;;;2.77;2.03;;;1.80;99.90;;;;;;4144858;28;20176;-66
2023/02/02 07:26:38;;;;;;;2.83;2.30;;;1.80;99.90;;;;;;4146090;28;20814;-66
2023/02/02 07:28:39;;;;;;;4.63;2.03;;;1.80;99.90;;;;;;4145429;28;20185;-66
2023/02/02 07:30:40;;;;;;;5.20;2.37;;;1.80;99.90;;;;;;4146305;28;20188;-66
2023/02/02 07:32:48;;;;;;;7.33;2.17;;;1.80;99.90;;;;;;4146034;28;20180;-66
2023/02/02 07:34:49;;;;;;;6.60;3.57;;;1.80;99.90;;;;;;4144846;28;20652;-67
2023/02/02 07:36:50;;;;;;;4.63;2.00;;;1.80;99.90;;;;;;4145912;28;20482;-67
2023/02/02 07:39:00;;;;;;;2.77;1.90;;;1.80;99.90;;;;;;4145241;28;20263;-67
2023/02/02 07:41:02;;;;;;;3.47;2.00;;;1.70;99.90;;;;;;4146012;28;20165;-65
2023/02/02 07:43:03;;;;;;;9.97;9.20;;;1.80;99.90;;;;;;4128669;28;20436;-64
2023/02/02 07:45:05;;;;;;;14.77;4.40;;;1.80;99.90;;;;;;4145048;28;20444;-67
2023/02/02 07:47:05;;;;;;;4.87;2.00;;;1.80;99.90;;;;;;4149526;28;20475;-65
2023/02/02 07:49:06;;;;;;;5.97;2.90;;;1.80;99.90;;;;;;4148746;28;20440;-66
2023/02/02 07:51:11;;;;;;;3.20;1.60;;;1.80;99.90;;;;;;4149381;28;20196;-66
2023/02/02 07:53:12;;;;;;;3.23;2.57;;;1.90;99.90;;;;;;4149344;28;20188;-65
2023/02/02 07:55:13;;;;;;;6.33;2.70;;;1.90;99.90;;;;;;4149134;28;20490;-65
2023/02/02 07:57:16;;;;;;;3.63;2.63;;;1.90;99.90;;;;;;4147955;28;20307;-65
2023/02/02 07:59:17;;;;;;;5.57;2.33;;;1.90;99.90;;;;;;4148951;28;20192;-65
2023/02/02 08:01:19;;;;;;;7.03;2.40;;;1.90;99.90;;;;;;4148095;28;20428;-65
2023/02/02 08:03:19;;;;;;;4.27;1.97;;;1.90;99.90;;;;;;4147877;28;20227;-65
2023/02/02 08:05:21;;;;;;;6.07;2.10;;;2.00;99.90;;;;;;4149081;28;20478;-65
2023/02/02 08:07:23;;;;;;;7.13;2.90;;;2.00;99.90;;;;;;4149005;28;20587;-65
2023/02/02 08:09:24;;;;;;;7.40;2.40;;;2.00;99.90;;;;;;4148206;28;20420;-65
2023/02/02 08:11:26;;;;;;;3.07;1.70;;;2.00;99.90;;;;;;4148986;28;20477;-65
2023/02/02 08:13:27;;;;;;;2.40;1.60;;;1.90;99.90;;;;;;4147818;28;20197;-65
2023/02/02 08:15:28;;;;;;;2.93;1.53;;;2.00;99.90;;;;;;4148994;28;20436;-65
2023/02/02 08:17:28;;;;;;;7.13;2.97;;;1.90;99.90;;;;;;4147421;28;20257;-65
2023/02/02 08:19:29;;;;;;;3.50;1.77;;;1.80;99.90;;;;;;4150708;28;20192;-66
2023/02/02 08:21:33;;;;;;;2.77;1.67;;;1.90;99.90;;;;;;4148965;28;20192;-66
2023/02/02 08:23:35;;;;;;;3.43;1.57;;;1.80;99.90;;;;;;4147883;28;20194;-66
2023/02/02 08:25:36;;;;;;;3.77;1.63;;;1.90;99.90;;;;;;4148832;28;20481;-67
2023/02/02 08:27:36;;;;;;;3.10;1.47;;;1.90;99.90;;;;;;4149058;28;20978;-65
2023/02/02 08:29:38;;;;;;;3.70;2.00;;;1.90;99.90;;;;;;4147081;28;20580;-65
2023/02/02 08:31:42;;;;;;;4.53;1.73;;;1.90;99.90;;;;;;4147720;28;20193;-66
2023/02/02 08:33:43;;;;;;;2.47;1.67;;;1.90;99.90;;;;;;4148811;28;20424;-66
2023/02/02 08:35:46;;;;;;;3.13;2.07;;;2.00;99.90;;;;;;4148674;28;20895;-66
2023/02/02 08:37:48;;;;;;;4.27;1.70;;;2.00;99.90;;;;;;4148900;28;20428;-66
2023/02/02 08:39:50;;;;;;;3.03;1.60;;;2.00;99.90;;;;;;4147468;28;20932;-65
2023/02/02 08:41:55;;;;;;;2.60;1.90;;;2.00;99.90;;;;;;4148742;28;20896;-65
2023/02/02 08:43:56;;;;;;;2.17;1.70;;;2.00;99.90;;;;;;4148284;28;20428;-65
2023/02/02 08:45:56;;;;;;;3.27;2.37;;;2.10;99.90;;;;;;4148851;28;20505;-65
2023/02/02 08:47:57;;;;;;;3.07;2.00;;;2.10;99.90;;;;;;4148603;28;20256;-64
2023/02/02 08:49:58;;;;;;;4.17;3.77;;;2.10;99.90;;;;;;4147953;28;20189;-64
2023/02/02 08:51:58;;;;;;;2.60;1.53;;;2.20;99.90;;;;;;4148646;28;20192;-65
2023/02/02 08:53:59;;;;;;;5.93;2.07;;;2.20;99.90;;;;;;4148512;28;20200;-66
2023/02/02 08:56:21;;;;;;;2.73;1.43;;;2.20;99.90;;;;;;4148452;28;20312;-66
2023/02/02 08:58:21;;;;;;;3.40;1.50;;;2.20;99.90;;;;;;4138187;28;20224;-65
2023/02/02 09:00:22;;;;;;;4.77;1.80;;;2.30;99.90;;;;;;4142685;28;20511;-66
2023/02/02 09:02:23;;;;;;;2.80;2.00;;;2.40;99.90;;;;;;4136087;28;20188;-65
2023/02/02 09:04:24;;;;;;;3.27;1.53;;;2.30;99.90;;;;;;4144306;28;20424;-66
2023/02/02 09:06:32;;;;;;;3.47;1.50;;;2.40;99.90;;;;;;4136594;28;20296;-65
2023/02/02 09:08:33;;;;;;;2.03;1.40;;;2.40;99.90;;;;;;4143371;28;20173;-65
2023/02/02 09:10:35;;;;;;;3.17;1.37;;;2.40;99.90;;;;;;4133337;28;20429;-65
2023/02/02 09:12:36;;;;;;;4.00;1.90;;;2.40;99.90;;;;;;4145971;28;20280;-65
2023/02/02 09:14:37;;;;;;;3.30;1.50;;;2.40;99.90;;;;;;4134531;28;20445;-65
2023/02/02 09:16:38;;;;;;;2.93;1.87;;;2.40;99.90;;;;;;4146511;28;20228;-64
2023/02/02 09:18:40;;;;;;;4.33;2.43;;;2.40;99.90;;;;;;4133188;28;20206;-66
2023/02/02 09:20:42;;;;;;;3.87;1.50;;;2.30;99.90;;;;;;4145327;28;20436;-65
2023/02/02 09:22:43;;;;;;;3.20;1.40;;;2.30;99.90;;;;;;4133097;28;20437;-65
2023/02/02 09:24:43;;;;;;;6.63;2.00;;;2.40;99.90;;;;;;4146505;28;20863;-66
2023/02/02 09:26:44;;;;;;;2.40;1.47;;;2.50;99.90;;;;;;4147776;28;20216;-66
2023/02/02 09:28:57;;;;;;;7.33;1.83;;;2.50;99.90;;;;;;4145987;28;20192;-67
2023/02/02 09:31:01;;;;;;;2.27;1.67;;;2.50;99.90;;;;;;4148050;28;20177;-66
2023/02/02 09:33:01;;;;;;;3.80;1.97;;;2.40;99.90;;;;;;4146956;28;20803;-66
2023/02/02 09:35:03;;;;;;;2.60;1.73;;;2.50;99.90;;;;;;4147900;28;20440;-66
2023/02/02 09:37:04;;;;;;;3.07;1.60;;;2.50;99.90;;;;;;4146720;28;20588;-66
2023/02/02 09:39:06;;;;;;;3.83;1.60;;;2.50;99.90;;;;;;4147808;28;20443;-65
2023/02/02 09:41:38;;;;;;;3.73;1.67;;;2.60;99.90;;;;;;4147693;28;20271;-65
2023/02/02 09:43:54;;;;;;;2.33;1.30;;;2.60;99.90;;;;;;4149406;28;20405;-66
2023/02/02 09:46:13;;;;;;;4.27;3.87;;;2.60;99.90;;;;;;4149638;28;20516;-66
2023/02/02 09:49:05;;;;;;;2.03;1.50;;;2.60;99.90;;;;;;4131987;28;20469;-66
2023/02/02 09:51:12;;;;;;;3.20;1.67;;;2.50;99.90;;;;;;4148825;28;20527;-66
2023/02/02 09:53:21;;;;;;;3.43;1.47;;;2.60;99.90;;;;;;4148585;28;20463;-66
2023/02/02 09:55:40;;;;;;;2.97;1.30;;;2.70;99.90;;;;;;4149702;28;20421;-66
2023/02/02 09:58:12;;;;;;;3.63;2.73;;;2.70;99.90;;;;;;4148178;28;20427;-65
2023/02/02 10:00:46;;;;;;;2.53;1.33;;;2.50;99.90;;;;;;4148476;28;20528;-68
2023/02/02 10:02:50;;;;;;;3.03;1.70;;;2.50;99.90;;;;;;4132183;28;20432;-67
2023/02/02 10:05:01;;;;;;;2.10;1.87;;;2.40;99.90;;;;;;4148456;28;20421;-66
2023/02/02 10:07:19;;;;;;;4.03;1.77;;;2.40;99.90;;;;;;4148319;28;20458;-67
2023/02/02 10:10:00;;;;;;;4.70;1.50;;;2.40;99.90;;;;;;4148661;28;20439;-68
2023/02/02 10:12:49;;;;;;;3.13;1.53;;;2.50;99.90;;;;;;4164885;28;20427;-67
2023/02/02 10:15:40;;;;;;;6.10;4.00;;;2.40;99.90;;;;;;4149061;28;20440;-68
2023/02/02 10:17:53;;;;;;;3.53;2.10;;;2.40;99.90;;;;;;4134657;28;20445;-68
2023/02/02 10:20:02;;;;;;;4.50;1.53;;;2.50;99.90;;;;;;4130670;28;20800;-68
2023/02/02 10:22:20;;;;;;;4.60;1.43;;;2.60;99.90;;;;;;4125870;28;20894;-68
2023/02/02 10:24:24;;;;;;;3.83;1.60;;;2.60;99.90;;;;;;4162643;28;20758;-67
2023/02/02 10:26:44;;;;;;;9.00;1.67;;;2.80;99.90;;;;;;4163041;28;20446;-68
2023/02/02 10:29:09;;;;;;;3.00;1.13;;;2.90;99.90;;;;;;4160889;28;20921;-67
2023/02/02 10:31:48;;;;;;;3.63;1.83;;;3.00;99.90;;;;;;4162981;28;20424;-67
2023/02/02 10:34:21;;;;;;;5.10;1.20;;;3.10;99.90;;;;;;4163142;28;20487;-67
2023/02/02 10:37:05;;;;;;;2.07;1.80;;;3.20;99.90;;;;;;4158261;28;20487;-68
2023/02/02 10:39:43;;;;;;;2.03;1.13;;;3.70;99.90;;;;;;4162348;28;20910;-67
2023/02/02 10:42:09;;;;;;;3.63;1.20;;;3.80;99.90;;;;;;4155307;28;20439;-67
2023/02/02 10:44:30;;;;;;;2.50;1.10;;;3.70;99.90;;;;;;4161915;28;20514;-67
2023/02/02 10:46:42;;;;;;;1.50;1.00;;;3.40;99.90;;;;;;4163424;28;20455;-67
2023/02/02 10:48:46;;;;;;;3.83;1.20;;;3.30;99.90;;;;;;4161325;28;20929;-67
2023/02/02 10:50:52;;;;;;;2.13;1.30;;;3.20;99.90;;;;;;4161926;28;20420;-68
2023/02/02 10:52:59;;;;;;;1.90;1.10;;;3.10;99.90;;;;;;4161705;28;20858;-68
2023/02/02 10:55:25;;;;;;;4.20;1.17;;;3.10;99.90;;;;;;4161785;28;20413;-68
2023/02/02 10:58:05;;;;;;;3.00;2.57;;;3.20;99.90;;;;;;4163282;28;21285;-67
2023/02/02 11:00:19;;;;;;;2.53;1.10;;;3.30;99.90;;;;;;4160870;28;20439;-67
2023/02/02 11:02:20;;;;;;;4.37;1.93;;;3.40;99.90;;;;;;4161564;28;20431;-68
2023/02/02 11:06:50;;;;;;;4.93;1.20;;;3.20;99.90;;;;;;4162578;28;20273;-68
2023/02/02 11:08:55;;;;;;;3.47;1.10;;;3.20;99.90;;;;;;4161931;28;20414;-67
2023/02/02 11:11:07;;;;;;;2.87;1.07;;;3.30;99.90;;;;;;4161472;28;20412;-67
2023/02/02 11:13:16;;;;;;;2.93;2.07;;;3.40;99.90;;;;;;4161536;28;20415;-66